createdAt,value
2019-05-22T00:02:36.442Z,15.20
2019-05-22T00:05:14.404Z,13.33
2019-05-22T00:07:45.103Z,12.00
2019-05-22T00:10:17.620Z,13.70
2019-05-22T00:12:49.232Z,12.77
2019-05-22T00:15:20.868Z,13.60
2019-05-22T00:17:50.981Z,14.83
2019-05-22T00:20:22.716Z,13.40
2019-05-22T00:22:53.930Z,14.07
2019-05-22T00:25:26.622Z,13.13
2019-05-22T00:27:55.877Z,13.20
2019-05-22T00:30:27.672Z,12.13
2019-05-22T00:33:02.292Z,10.37
2019-05-22T00:35:31.985Z,12.57
2019-05-22T00:38:02.914Z,13.57
2019-05-22T00:40:32.806Z,12.97
2019-05-22T00:43:10.554Z,14.50
2019-05-22T00:45:36.097Z,14.13
2019-05-22T00:48:07.306Z,13.67
2019-05-22T00:50:44.945Z,12.97
2019-05-22T00:53:30.947Z,12.93
2019-05-22T00:56:06.028Z,14.50
2019-05-22T00:58:38.629Z,14.10
2019-05-22T01:01:16.913Z,12.77
2019-05-22T01:03:48.348Z,13.73
2019-05-22T01:06:19.725Z,14.00
2019-05-22T01:08:50.681Z,14.23
2019-05-22T01:11:21.875Z,12.50
2019-05-22T01:13:51.665Z,14.10
2019-05-22T01:16:21.269Z,12.57
2019-05-22T01:18:52.305Z,12.33
2019-05-22T01:21:24.382Z,14.30
2019-05-22T01:23:56.734Z,12.67
2019-05-22T01:26:27.156Z,12.27
2019-05-22T01:28:56.683Z,11.10
2019-05-22T01:31:37.404Z,11.77
2019-05-22T01:34:12.826Z,12.20
2019-05-22T01:36:47.950Z,13.47
2019-05-22T01:39:39.304Z,11.60
2019-05-22T01:42:11.053Z,12.93
2019-05-22T01:44:40.535Z,9.20
2019-05-22T01:47:16.379Z,9.97
2019-05-22T01:49:52.137Z,9.97
2019-05-22T01:52:23.159Z,11.30
2019-05-22T01:54:53.065Z,12.23
2019-05-22T01:57:22.742Z,12.30
2019-05-22T01:59:54.082Z,9.87
2019-05-22T02:02:25.618Z,11.17
2019-05-22T02:04:55.898Z,9.83
2019-05-22T02:07:26.225Z,10.83
2019-05-22T02:09:55.496Z,11.90
2019-05-22T02:12:36.283Z,11.93
2019-05-22T02:15:07.477Z,10.13
2019-05-22T02:17:37.121Z,10.87
2019-05-22T02:20:08.146Z,13.50
2019-05-22T02:22:38.601Z,13.97
2019-05-22T02:25:09.941Z,12.63
2019-05-22T02:27:40.350Z,11.77
2019-05-22T02:30:11.844Z,11.43
2019-05-22T02:32:41.896Z,12.20
2019-05-22T02:35:11.108Z,11.63
2019-05-22T02:37:42.410Z,10.43
2019-05-22T02:40:20.272Z,11.50
2019-05-22T02:42:50.936Z,12.33
2019-05-22T02:45:20.615Z,11.07
2019-05-22T02:47:50.365Z,13.60
2019-05-22T02:50:20.754Z,13.67
2019-05-22T02:52:50.149Z,12.13
2019-05-22T02:55:20.380Z,12.30
2019-05-22T02:57:49.922Z,10.93
2019-05-22T03:00:20.134Z,13.17
2019-05-22T03:02:50.882Z,11.37
2019-05-22T03:05:21.437Z,10.37
2019-05-22T03:07:51.768Z,11.67
2019-05-22T03:10:23.861Z,9.90
2019-05-22T03:12:53.552Z,10.40
2019-05-22T03:15:25.880Z,12.50
2019-05-22T03:18:02.685Z,9.23
2019-05-22T03:20:33.832Z,8.40
2019-05-22T03:23:31.211Z,9.57
2019-05-22T03:26:02.075Z,9.73
2019-05-22T03:28:31.834Z,9.67
2019-05-22T03:31:04.370Z,8.67
2019-05-22T03:33:36.690Z,9.00
2019-05-22T03:36:11.331Z,9.27
2019-05-22T03:38:42.409Z,10.47
2019-05-22T03:41:12.871Z,10.03
2019-05-22T03:43:43.912Z,11.80
2019-05-22T03:46:35.436Z,10.97
2019-05-22T03:49:05.922Z,10.83
2019-05-22T03:51:35.700Z,11.10
2019-05-22T03:54:06.649Z,13.20
2019-05-22T03:56:39.969Z,11.33
2019-05-22T03:59:09.910Z,12.20
2019-05-22T04:01:39.794Z,10.90
2019-05-22T04:04:09.842Z,12.80
2019-05-22T04:06:41.860Z,12.70
2019-05-22T04:09:22.663Z,12.97
2019-05-22T04:11:52.078Z,11.53
2019-05-22T04:14:22.478Z,12.60
2019-05-22T04:16:51.674Z,12.57
2019-05-22T04:19:22.786Z,10.40
2019-05-22T04:21:52.185Z,11.97
2019-05-22T04:24:22.038Z,11.53
2019-05-22T04:26:51.853Z,12.10
2019-05-22T04:29:21.258Z,9.80
2019-05-22T04:32:00.375Z,10.97
2019-05-22T04:34:29.891Z,10.93
2019-05-22T04:37:00.552Z,11.37
2019-05-22T04:39:31.631Z,11.10
2019-05-22T04:42:01.758Z,9.57
2019-05-22T04:44:31.656Z,8.07
2019-05-22T04:47:01.301Z,9.47
2019-05-22T04:49:31.142Z,10.30
2019-05-22T04:52:00.383Z,11.47
2019-05-22T04:54:29.775Z,9.07
2019-05-22T04:57:00.365Z,8.60
2019-05-22T04:59:31.754Z,8.63
2019-05-22T05:02:01.495Z,10.20
2019-05-22T05:04:33.929Z,12.43
2019-05-22T05:07:03.376Z,12.03
2019-05-22T05:09:33.079Z,9.70
2019-05-22T05:12:02.828Z,9.50
2019-05-22T05:14:32.350Z,8.90
2019-05-22T05:17:01.843Z,9.80
2019-05-22T05:19:32.597Z,8.97
2019-05-22T05:22:01.925Z,11.53
2019-05-22T05:24:31.141Z,10.50
2019-05-22T05:27:03.005Z,9.53
2019-05-22T05:29:33.192Z,10.07
2019-05-22T05:32:02.685Z,9.60
2019-05-22T05:34:40.599Z,10.23
2019-05-22T05:37:10.146Z,12.10
2019-05-22T05:40:18.500Z,9.30
2019-05-22T05:42:48.038Z,10.07
2019-05-22T05:45:17.346Z,13.00
2019-05-22T05:47:46.605Z,12.23
2019-05-22T05:50:16.603Z,11.63
2019-05-22T05:52:47.251Z,13.20
2019-05-22T05:55:17.615Z,11.93
2019-05-22T05:58:32.198Z,12.33
2019-05-22T06:01:13.296Z,10.77
2019-05-22T06:03:43.228Z,12.23
2019-05-22T06:06:32.979Z,9.63
2019-05-22T06:09:04.426Z,10.67
2019-05-22T06:11:45.267Z,12.10
2019-05-22T06:14:22.265Z,11.27
2019-05-22T06:17:54.642Z,10.53
2019-05-22T06:20:25.762Z,10.00
2019-05-22T06:23:48.273Z,9.60
2019-05-22T06:26:39.754Z,9.50
2019-05-22T06:29:10.381Z,10.40
2019-05-22T06:32:04.595Z,12.07
2019-05-22T06:34:33.946Z,11.33
2019-05-22T06:37:09.079Z,13.47
2019-05-22T06:39:38.301Z,11.37
2019-05-22T06:42:08.571Z,11.07
2019-05-22T06:44:38.202Z,11.47
2019-05-22T06:47:09.945Z,10.03
2019-05-22T06:49:56.615Z,12.37
2019-05-22T06:52:26.031Z,12.43
2019-05-22T06:54:55.610Z,11.93
2019-05-22T06:57:34.923Z,9.77
2019-05-22T07:00:14.074Z,11.30
2019-05-22T07:02:41.371Z,11.90
2019-05-22T07:05:11.469Z,12.27
2019-05-22T07:07:40.932Z,10.00
2019-05-22T07:10:12.526Z,11.23
2019-05-22T07:12:43.557Z,12.33
2019-05-22T07:15:39.475Z,11.17
2019-05-22T07:18:12.838Z,10.77
2019-05-22T07:20:41.880Z,10.70
2019-05-22T07:23:16.791Z,11.57
2019-05-22T07:25:47.139Z,11.30
2019-05-22T07:28:18.146Z,12.77
2019-05-22T07:30:47.874Z,13.03
2019-05-22T07:33:17.835Z,11.03
2019-05-22T07:36:07.843Z,11.97
2019-05-22T07:38:19.305Z,10.37
2019-05-22T07:40:50.995Z,12.10
2019-05-22T07:43:21.617Z,10.73
2019-05-22T07:45:52.777Z,12.87
2019-05-22T07:48:24.104Z,11.43
2019-05-22T07:50:54.210Z,12.27
2019-05-22T07:53:23.549Z,12.70
2019-05-22T07:55:53.242Z,11.60
2019-05-22T07:58:24.216Z,11.50
2019-05-22T08:00:57.362Z,11.33
2019-05-22T08:03:26.940Z,10.70
2019-05-22T08:05:58.373Z,12.10
2019-05-22T08:08:29.857Z,10.60
2019-05-22T08:10:59.348Z,12.47
2019-05-22T08:13:28.820Z,12.30
2019-05-22T08:15:58.451Z,11.73
2019-05-22T08:18:28.128Z,11.50
2019-05-22T08:20:57.400Z,10.87
2019-05-22T08:23:27.329Z,11.30
2019-05-22T08:25:58.075Z,11.80
2019-05-22T08:28:28.650Z,11.67
2019-05-22T08:30:57.884Z,11.97
2019-05-22T08:33:27.078Z,13.97
2019-05-22T08:35:56.816Z,12.83
2019-05-22T08:38:28.620Z,13.20
2019-05-22T08:40:59.645Z,12.40
2019-05-22T08:43:29.399Z,11.90
2019-05-22T08:45:58.693Z,13.67
2019-05-22T08:48:28.217Z,13.07
2019-05-22T08:50:58.696Z,13.73
2019-05-22T08:53:28.725Z,12.67
2019-05-22T08:55:58.808Z,14.20
2019-05-22T08:58:28.583Z,13.80
2019-05-22T09:00:57.877Z,13.90
2019-05-22T09:03:27.367Z,13.90
2019-05-22T09:05:56.614Z,15.20
2019-05-22T09:08:26.203Z,15.77
2019-05-22T09:10:55.530Z,16.50
2019-05-22T09:13:24.820Z,14.63
2019-05-22T09:15:54.817Z,16.63
2019-05-22T09:18:24.130Z,16.77
2019-05-22T09:20:53.521Z,15.57
2019-05-22T09:23:22.801Z,16.03
2019-05-22T09:25:52.633Z,16.03
2019-05-22T09:28:22.088Z,15.80
2019-05-22T09:30:51.509Z,16.37
2019-05-22T09:33:21.627Z,16.03
2019-05-22T09:35:51.199Z,16.97
2019-05-22T09:38:20.512Z,15.10
2019-05-22T09:40:49.989Z,18.63
2019-05-22T09:43:19.609Z,14.63
2019-05-22T09:45:48.878Z,14.63
2019-05-22T09:48:18.279Z,15.53
2019-05-22T09:50:47.542Z,16.83
2019-05-22T09:53:16.909Z,13.63
2019-05-22T09:55:47.316Z,11.40
2019-05-22T09:58:17.045Z,13.87
2019-05-22T10:00:46.369Z,15.13
2019-05-22T10:03:15.678Z,14.77
2019-05-22T10:05:45.082Z,15.57
2019-05-22T10:08:15.139Z,14.30
2019-05-22T10:10:44.584Z,15.73
2019-05-22T10:13:14.026Z,13.40
2019-05-22T10:15:43.236Z,13.70
2019-05-22T10:18:13.686Z,14.30
2019-05-22T10:20:43.087Z,13.47
2019-05-22T10:23:15.940Z,12.93
2019-05-22T10:25:43.848Z,15.53
2019-05-22T10:28:13.549Z,15.67
2019-05-22T10:30:42.914Z,13.87
2019-05-22T10:33:12.331Z,12.77
2019-05-22T10:35:41.888Z,13.50
2019-05-22T10:38:11.376Z,13.87
2019-05-22T10:40:40.683Z,16.97
2019-05-22T10:43:10.042Z,15.70
2019-05-22T10:45:39.402Z,15.00
2019-05-22T10:48:08.611Z,15.87
2019-05-22T10:50:37.894Z,17.07
2019-05-22T10:53:07.494Z,16.80
2019-05-22T10:55:37.385Z,17.07
2019-05-22T10:58:07.054Z,17.47
2019-05-22T11:00:36.789Z,15.03
2019-05-22T11:03:06.011Z,14.77
2019-05-22T11:05:36.511Z,17.47
2019-05-22T11:08:06.481Z,14.67
2019-05-22T11:10:36.026Z,15.13
2019-05-22T11:13:05.786Z,15.43
2019-05-22T11:15:35.209Z,16.43
2019-05-22T11:18:04.416Z,16.70
2019-05-22T11:20:34.202Z,17.53
2019-05-22T11:23:03.720Z,13.77
2019-05-22T11:25:33.649Z,15.43
2019-05-22T11:28:02.856Z,17.07
2019-05-22T11:30:32.077Z,18.23
2019-05-22T11:33:01.649Z,16.67
2019-05-22T11:35:31.832Z,17.53
2019-05-22T11:38:01.058Z,15.03
2019-05-22T11:40:30.254Z,22.33
2019-05-22T11:42:59.467Z,24.93
2019-05-22T11:45:29.769Z,28.27
2019-05-22T11:47:59.151Z,24.07
2019-05-22T11:50:30.090Z,23.47
2019-05-22T11:52:59.440Z,25.87
2019-05-22T11:55:43.899Z,25.23
2019-05-22T11:58:00.900Z,24.10
2019-05-22T12:00:30.183Z,25.03
2019-05-22T12:03:01.133Z,23.80
2019-05-22T12:05:30.533Z,24.70
2019-05-22T12:07:59.935Z,25.33
2019-05-22T12:10:29.144Z,27.63
2019-05-22T12:12:58.942Z,26.07
2019-05-22T12:15:30.479Z,24.83
2019-05-22T12:18:01.226Z,24.83
2019-05-22T12:20:32.402Z,22.73
2019-05-22T12:23:01.671Z,22.67
2019-05-22T12:25:30.895Z,22.33
2019-05-22T12:28:00.218Z,23.70
2019-05-22T12:30:29.459Z,23.73
2019-05-22T12:32:59.261Z,23.03
2019-05-22T12:35:29.202Z,24.17
2019-05-22T12:38:00.330Z,22.77
2019-05-22T12:40:32.101Z,25.90
2019-05-22T12:43:01.700Z,27.53
2019-05-22T12:45:31.059Z,27.80
2019-05-22T12:48:01.601Z,25.10
2019-05-22T12:50:33.114Z,23.70
2019-05-22T12:53:03.335Z,21.67
2019-05-22T12:55:32.552Z,21.67
2019-05-22T12:58:01.791Z,20.83
2019-05-22T13:00:31.271Z,20.47
2019-05-22T13:03:00.702Z,20.37
2019-05-22T13:05:29.897Z,19.07
2019-05-22T13:07:59.296Z,17.97
2019-05-22T13:10:28.656Z,16.23
2019-05-22T13:12:58.415Z,16.87
2019-05-22T13:15:27.655Z,18.30
2019-05-22T13:17:57.697Z,18.73
2019-05-22T13:20:41.896Z,17.93
2019-05-22T13:23:01.765Z,17.60
2019-05-22T13:25:32.753Z,15.67
2019-05-22T13:28:03.103Z,17.37
2019-05-22T13:30:32.569Z,16.93
2019-05-22T13:33:01.852Z,15.00
2019-05-22T13:35:31.447Z,17.23
2019-05-22T13:38:00.937Z,17.93
2019-05-22T13:40:32.489Z,15.80
2019-05-22T13:43:02.483Z,11.20
2019-05-22T13:45:31.934Z,12.47
2019-05-22T13:48:01.132Z,11.17
2019-05-22T13:50:30.616Z,11.80
2019-05-22T13:53:03.002Z,11.57
2019-05-22T13:55:32.834Z,14.33
2019-05-22T13:58:02.799Z,12.20
2019-05-22T14:00:32.141Z,10.00
2019-05-22T14:03:01.348Z,12.50
2019-05-22T14:05:30.951Z,9.30
2019-05-22T14:08:00.335Z,9.27
2019-05-22T14:10:30.484Z,10.93
2019-05-22T14:12:59.663Z,7.80
2019-05-22T14:15:48.264Z,7.10
2019-05-22T14:18:00.493Z,6.63
2019-05-22T14:20:29.782Z,9.10
2019-05-22T14:22:58.980Z,8.33
2019-05-22T14:25:29.151Z,7.80
2019-05-22T14:27:58.397Z,7.10
2019-05-22T14:30:27.858Z,8.27
2019-05-22T14:33:02.981Z,6.77
2019-05-22T14:35:46.967Z,5.90
2019-05-22T14:38:02.153Z,7.50
2019-05-22T14:40:31.707Z,6.20
2019-05-22T14:43:01.002Z,5.00
2019-05-22T14:45:30.354Z,4.13
2019-05-22T14:47:59.725Z,5.70
2019-05-22T14:50:32.689Z,5.10
2019-05-22T14:53:00.693Z,8.17
2019-05-22T14:55:32.447Z,6.87
2019-05-22T14:58:02.424Z,7.90
2019-05-22T15:00:33.310Z,6.37
2019-05-22T15:03:03.304Z,9.67
2019-05-22T15:05:32.759Z,6.37
2019-05-22T15:08:02.657Z,5.90
2019-05-22T15:10:33.117Z,8.23
2019-05-22T15:13:02.581Z,7.83
2019-05-22T15:15:32.506Z,8.97
2019-05-22T15:18:01.782Z,9.43
2019-05-22T15:20:37.328Z,8.70
2019-05-22T15:23:07.258Z,8.13
2019-05-22T15:25:36.586Z,7.00
2019-05-22T15:28:06.382Z,8.10
2019-05-22T15:30:35.734Z,9.73
2019-05-22T15:33:04.961Z,12.77
2019-05-22T15:35:34.602Z,11.50
2019-05-22T15:38:03.877Z,9.97
2019-05-22T15:40:33.646Z,11.57
2019-05-22T15:43:02.994Z,12.53
2019-05-22T15:45:34.769Z,11.80
2019-05-22T15:48:08.038Z,11.70
2019-05-22T15:50:39.035Z,10.30
2019-05-22T15:53:14.666Z,10.27
2019-05-22T15:55:42.574Z,8.03
2019-05-22T15:58:11.989Z,10.00
2019-05-22T16:00:43.154Z,9.27
2019-05-22T16:03:15.164Z,10.57
2019-05-22T16:05:44.970Z,15.40
2019-05-22T16:08:14.850Z,12.03
2019-05-22T16:10:44.927Z,11.77
2019-05-22T16:13:14.866Z,11.53
2019-05-22T16:15:47.047Z,11.93
2019-05-22T16:18:18.709Z,12.43
2019-05-22T16:20:48.679Z,12.17
2019-05-22T16:23:21.308Z,13.73
2019-05-22T16:25:50.567Z,14.10
2019-05-22T16:28:20.296Z,11.67
2019-05-22T16:30:50.000Z,15.50
2019-05-22T16:33:19.383Z,11.93
2019-05-22T16:35:48.632Z,12.57
2019-05-22T16:38:18.327Z,12.63
2019-05-22T16:40:47.593Z,11.33
2019-05-22T16:43:17.057Z,13.60
2019-05-22T16:45:46.357Z,11.83
2019-05-22T16:48:28.469Z,11.20
2019-05-22T16:50:47.585Z,12.57
2019-05-22T16:53:17.910Z,13.87
2019-05-22T16:55:47.543Z,9.00
2019-05-22T16:58:16.823Z,13.00
2019-05-22T17:00:47.193Z,11.17
2019-05-22T17:03:16.666Z,9.83
2019-05-22T17:05:46.187Z,12.50
2019-05-22T17:08:16.112Z,11.23
2019-05-22T17:10:45.591Z,12.60
2019-05-22T17:13:15.626Z,10.27
2019-05-22T17:15:45.036Z,9.77
2019-05-22T17:18:14.744Z,8.63
2019-05-22T17:20:44.739Z,10.57
2019-05-22T17:23:14.072Z,8.73
2019-05-22T17:25:43.260Z,7.70
2019-05-22T17:28:12.639Z,7.90
2019-05-22T17:30:42.099Z,9.03
2019-05-22T17:33:12.054Z,8.37
2019-05-22T17:35:41.426Z,8.57
2019-05-22T17:38:10.759Z,9.60
2019-05-22T17:40:40.251Z,7.80
2019-05-22T17:43:09.881Z,9.17
2019-05-22T17:45:39.774Z,7.23
2019-05-22T17:48:09.332Z,8.63
2019-05-22T17:50:38.526Z,9.47
2019-05-22T17:53:08.074Z,9.57
2019-05-22T17:55:37.752Z,10.10
2019-05-22T17:58:07.097Z,9.50
2019-05-22T18:00:40.807Z,10.83
2019-05-22T18:03:09.994Z,11.50
2019-05-22T18:05:39.724Z,8.30
2019-05-22T18:08:09.397Z,11.20
2019-05-22T18:10:40.847Z,7.87
2019-05-22T18:13:10.676Z,11.17
2019-05-22T18:15:39.940Z,10.67
2019-05-22T18:18:10.530Z,7.23
2019-05-22T18:20:43.583Z,7.37
2019-05-22T18:23:11.033Z,6.40
2019-05-22T18:25:40.226Z,7.97
2019-05-22T18:28:10.771Z,7.43
2019-05-22T18:30:41.547Z,8.57
2019-05-22T18:33:11.442Z,8.83
2019-05-22T18:35:40.748Z,7.57
2019-05-22T18:38:10.017Z,11.17
2019-05-22T18:40:39.226Z,8.77
2019-05-22T18:43:08.421Z,7.83
2019-05-22T18:45:38.789Z,8.63
2019-05-22T18:48:08.244Z,9.53
2019-05-22T18:50:37.684Z,9.67
2019-05-22T18:53:07.016Z,7.47
2019-05-22T18:55:36.188Z,9.93
2019-05-22T18:58:05.471Z,8.00
2019-05-22T19:00:34.757Z,10.33
2019-05-22T19:03:04.936Z,8.40
2019-05-22T19:05:34.276Z,9.00
2019-05-22T19:08:03.476Z,8.43
2019-05-22T19:10:33.439Z,8.33
2019-05-22T19:13:02.722Z,9.00
2019-05-22T19:15:31.893Z,9.23
2019-05-22T19:18:01.149Z,11.90
2019-05-22T19:20:30.352Z,8.37
2019-05-22T19:23:01.565Z,8.93
2019-05-22T19:25:30.649Z,11.93
2019-05-22T19:27:59.849Z,9.37
2019-05-22T19:30:29.612Z,8.53
2019-05-22T19:32:58.818Z,9.53
2019-05-22T19:35:28.020Z,10.53
2019-05-22T19:37:57.966Z,9.07
2019-05-22T19:40:27.176Z,9.77
2019-05-22T19:42:56.782Z,7.90
2019-05-22T19:45:26.160Z,7.90
2019-05-22T19:47:56.857Z,11.10
2019-05-22T19:50:26.872Z,7.00
2019-05-22T19:53:15.714Z,9.73
2019-05-22T19:55:31.327Z,7.13
2019-05-22T19:58:01.511Z,6.80
2019-05-22T20:00:31.575Z,9.63
2019-05-22T20:03:00.960Z,8.50
2019-05-22T20:05:30.361Z,8.37
2019-05-22T20:07:59.773Z,9.13
2019-05-22T20:10:28.977Z,8.00
2019-05-22T20:12:58.858Z,7.63
2019-05-22T20:15:28.054Z,7.77
2019-05-22T20:17:57.631Z,6.90
2019-05-22T20:20:27.252Z,6.70
2019-05-22T20:22:56.897Z,8.00
2019-05-22T20:25:26.667Z,7.80
2019-05-22T20:27:55.998Z,9.00
2019-05-22T20:30:26.858Z,9.20
2019-05-22T20:32:56.142Z,9.07
2019-05-22T20:35:25.338Z,8.87
2019-05-22T20:37:54.562Z,8.60
2019-05-22T20:40:25.011Z,9.27
2019-05-22T20:42:54.515Z,8.30
2019-05-22T20:45:25.593Z,7.33
2019-05-22T20:48:06.682Z,8.30
2019-05-22T20:50:37.300Z,9.40
2019-05-22T20:53:07.473Z,9.77
2019-05-22T20:55:38.541Z,9.70
2019-05-22T20:58:08.815Z,7.73
2019-05-22T21:00:39.680Z,11.07
2019-05-22T21:03:09.719Z,9.17
2019-05-22T21:05:40.056Z,6.40
2019-05-22T21:08:12.190Z,7.83
2019-05-22T21:10:46.838Z,10.13
2019-05-22T21:13:18.570Z,5.37
2019-05-22T21:15:50.219Z,7.77
2019-05-22T21:18:22.894Z,8.33
2019-05-22T21:20:55.079Z,8.43
2019-05-22T21:23:23.623Z,7.77
2019-05-22T21:25:52.898Z,9.20
2019-05-22T21:28:22.456Z,9.77
2019-05-22T21:30:52.684Z,10.37
2019-05-22T21:33:23.381Z,9.33
2019-05-22T21:35:53.941Z,6.77
2019-05-22T21:38:23.599Z,8.67
2019-05-22T21:40:53.528Z,7.80
2019-05-22T21:43:22.973Z,6.87
2019-05-22T21:45:52.269Z,9.33
2019-05-22T21:48:21.491Z,9.07
2019-05-22T21:50:51.236Z,9.57
2019-05-22T21:53:20.789Z,9.37
2019-05-22T21:56:03.603Z,8.33
2019-05-22T21:58:21.193Z,7.80
2019-05-22T22:01:04.307Z,8.97
2019-05-22T22:03:37.804Z,9.03
2019-05-22T22:06:07.054Z,8.60
2019-05-22T22:08:36.443Z,8.17
2019-05-22T22:11:07.567Z,9.67
2019-05-22T22:13:37.468Z,6.60
2019-05-22T22:16:07.183Z,8.20
2019-05-22T22:18:38.095Z,7.87
2019-05-22T22:21:07.798Z,10.27
2019-05-22T22:23:37.240Z,8.93
2019-05-22T22:26:24.229Z,9.43
2019-05-22T22:28:38.168Z,10.17
2019-05-22T22:31:09.100Z,10.67
2019-05-22T22:33:38.734Z,9.07
2019-05-22T22:36:07.930Z,9.70
2019-05-22T22:38:38.135Z,9.43
2019-05-22T22:41:09.161Z,9.57
2019-05-22T22:43:39.545Z,10.43
2019-05-22T22:46:23.017Z,10.73
2019-05-22T22:48:53.339Z,10.57
2019-05-22T22:51:22.545Z,10.67
2019-05-22T22:53:53.644Z,10.73
2019-05-22T22:56:23.246Z,11.80
2019-05-22T22:58:52.627Z,10.47
2019-05-22T23:01:27.023Z,9.33
2019-05-22T23:03:56.721Z,11.33
2019-05-22T23:06:25.921Z,13.43
2019-05-22T23:08:55.114Z,11.23
2019-05-22T23:11:26.716Z,11.43
2019-05-22T23:13:56.025Z,10.93
2019-05-22T23:16:25.602Z,12.63
2019-05-22T23:19:40.735Z,11.47
2019-05-22T23:22:27.039Z,11.60
2019-05-22T23:24:56.746Z,11.03
2019-05-22T23:27:27.273Z,10.67
2019-05-22T23:29:57.549Z,11.23
2019-05-22T23:32:27.000Z,10.07
2019-05-22T23:34:56.575Z,11.30
2019-05-22T23:37:26.298Z,10.27
2019-05-22T23:39:55.923Z,9.87
2019-05-22T23:42:29.983Z,12.57
2019-05-22T23:45:00.134Z,12.33
2019-05-22T23:47:29.449Z,11.80
2019-05-22T23:49:58.758Z,11.07
2019-05-22T23:52:28.028Z,10.70
2019-05-22T23:54:57.240Z,12.90
2019-05-22T23:57:26.786Z,10.70
